Ridgecrest, North Carolina
Current Conditions -  °F | °C
As of 4:24 PM on Saturday 20 Dec 2014 (Local Time) from KAVL Reporting Station
Overcast Overcast  
Wind Chill: 43°   Ceiling: 1400
Heat Index: 43°   Visibility: 10mi
Dew Point: 37°   Wind: 3mph
Humidity: 80%   Direction: 160°SSE
Pressure: 30.16"   Gusts: NA
Location:  35.62°N, 82.28°W
Report Text: KAVL 202124Z 16003KT 10SM OVC014 06/03 A3016 RMK AO2 T00610028
Loading
Personal Weather Stations






























Interactive Weather Map New forecast layout! Learn more

10-Day Weather Forecast

Advertisements
Track Severe Weather on mobile